AAR578 UAAA-RKSI
Flight info
| Callsign | AAR578 |
|---|---|
| Flight time | 4h 44m |
| Altitude | 41100 |
| Route | PIGAL7E PIGAL DCT GASBU DCT YNN DCT UGPEL DCT OMDAX W190 ADPET W188 BATUS DCT POPIB W270 BIVOR DCT EGILO W69 GUVBA DCT SOTMU DCT BIMEG V9 VAPGU W34 ANRAT A326 DONVO G597 AGAVO/N0466F410 Y644 REBIT REBIT2H |
| Aircraft | A333/H-SDE3GHIJ2J3J5M1RVWXY/LB2D1 |
Departure
| Time | 2026-04-25 20:17 |
|---|---|
| Airport | Almaty International Airport (UAAA) |
Arrival
| Time | 2026-04-26 01:02 |
|---|---|
| Airport | Incheon International Airport (RKSI) |
| Time | Latitude | Longitude | Altitude | Speed | Heading |
|---|---|---|---|---|---|
| 2026-04-25 19:36 | 43.34879 | 77.01366 | 2233 ft | 0 kts | 246° |
| 2026-04-25 20:06 | 43.34879 | 77.01369 | 2233 ft | 1 kts | 246° |
| 2026-04-25 20:06 | 43.34887 | 77.01391 | 2226 ft | 3 kts | 242° |
| 2026-04-25 20:07 | 43.34897 | 77.01415 | 2228 ft | 3 kts | 236° |
| 2026-04-25 20:07 | 43.34909 | 77.01437 | 2233 ft | 3 kts | 226° |
| 2026-04-25 20:07 | 43.34924 | 77.01454 | 2229 ft | 3 kts | 205° |
| 2026-04-25 20:07 | 43.34940 | 77.01461 | 2230 ft | 2 kts | 164° |
| 2026-04-25 20:08 | 43.34945 | 77.01459 | 2232 ft | 4 kts | 155° |
| 2026-04-25 20:11 | 43.34942 | 77.01461 | 2232 ft | 1 kts | 155° |
| 2026-04-25 20:11 | 43.34932 | 77.01467 | 2225 ft | 2 kts | 155° |
| 2026-04-25 20:11 | 43.34918 | 77.01476 | 2229 ft | 1 kts | 155° |
| 2026-04-25 20:12 | 43.34911 | 77.01481 | 2229 ft | 2 kts | 155° |
| 2026-04-25 20:12 | 43.34896 | 77.01489 | 2231 ft | 3 kts | 156° |
| 2026-04-25 20:12 | 43.34874 | 77.01499 | 2229 ft | 4 kts | 168° |
| 2026-04-25 20:12 | 43.34863 | 77.01502 | 2227 ft | 5 kts | 169° |
| 2026-04-25 20:13 | 43.34779 | 77.01478 | 2228 ft | 10 kts | 199° |
| 2026-04-25 20:13 | 43.34714 | 77.01447 | 2226 ft | 10 kts | 198° |
| 2026-04-25 20:13 | 43.34654 | 77.01455 | 2229 ft | 8 kts | 162° |
| 2026-04-25 20:13 | 43.34600 | 77.01467 | 2229 ft | 8 kts | 171° |
| 2026-04-25 20:14 | 43.34546 | 77.01490 | 2229 ft | 9 kts | 159° |
| 2026-04-25 20:14 | 43.34490 | 77.01524 | 2230 ft | 9 kts | 155° |
| 2026-04-25 20:14 | 43.34433 | 77.01561 | 2225 ft | 9 kts | 155° |
| 2026-04-25 20:14 | 43.34370 | 77.01600 | 2228 ft | 10 kts | 155° |
| 2026-04-25 20:15 | 43.34304 | 77.01641 | 2231 ft | 10 kts | 155° |
| 2026-04-25 20:15 | 43.34272 | 77.01661 | 2230 ft | 0 kts | 155° |
| 2026-04-25 20:15 | 43.34252 | 77.01673 | 2234 ft | 6 kts | 155° |
| 2026-04-25 20:16 | 43.34195 | 77.01715 | 2232 ft | 12 kts | 146° |
| 2026-04-25 20:16 | 43.34170 | 77.01829 | 2226 ft | 16 kts | 68° |
| 2026-04-25 20:16 | 43.34275 | 77.02046 | 2227 ft | 47 kts | 55° |
| 2026-04-25 20:16 | 43.34569 | 77.02641 | 2232 ft | 103 kts | 56° |
| 2026-04-25 20:17 | 43.35064 | 77.03638 | 2228 ft | 148 kts | 56° |
| 2026-04-25 20:17 | 43.35712 | 77.04941 | 2420 ft | 172 kts | 56° |
| 2026-04-25 20:17 | 43.36371 | 77.06269 | 3105 ft | 166 kts | 55° |
| 2026-04-25 20:17 | 43.37037 | 77.07563 | 3720 ft | 165 kts | 56° |
| 2026-04-25 20:18 | 43.37713 | 77.08903 | 4121 ft | 178 kts | 57° |
| 2026-04-25 20:18 | 43.38457 | 77.10371 | 4344 ft | 195 kts | 56° |
| 2026-04-25 20:18 | 43.39290 | 77.11977 | 4547 ft | 219 kts | 55° |
| 2026-04-25 20:18 | 43.40225 | 77.13764 | 4769 ft | 242 kts | 54° |
| 2026-04-25 20:19 | 43.41231 | 77.15739 | 5072 ft | 260 kts | 56° |
| 2026-04-25 20:19 | 43.42277 | 77.17846 | 5543 ft | 271 kts | 56° |
| 2026-04-25 20:19 | 43.43350 | 77.20024 | 6130 ft | 278 kts | 56° |
| 2026-04-25 20:19 | 43.44443 | 77.22248 | 6745 ft | 283 kts | 56° |
| 2026-04-25 20:20 | 43.45537 | 77.24478 | 7382 ft | 287 kts | 56° |
| 2026-04-25 20:20 | 43.46659 | 77.26768 | 8069 ft | 290 kts | 56° |
| 2026-04-25 20:20 | 43.47787 | 77.29090 | 8808 ft | 293 kts | 56° |
| 2026-04-25 20:20 | 43.48937 | 77.31481 | 9511 ft | 297 kts | 56° |
| 2026-04-25 20:21 | 43.50072 | 77.33849 | 10154 ft | 303 kts | 56° |
| 2026-04-25 20:21 | 43.51264 | 77.36334 | 10480 ft | 320 kts | 56° |
| 2026-04-25 20:21 | 43.52525 | 77.38968 | 10747 ft | 338 kts | 56° |
| 2026-04-25 20:21 | 43.53852 | 77.41744 | 11010 ft | 354 kts | 56° |
| 2026-04-25 20:22 | 43.55242 | 77.44653 | 11124 ft | 373 kts | 56° |
| 2026-04-25 20:22 | 43.55730 | 77.45674 | 11132 ft | 378 kts | 56° |
| 2026-04-25 20:22 | 43.57667 | 77.49723 | 11134 ft | 383 kts | 56° |
| 2026-04-25 20:22 | 43.59039 | 77.52884 | 11147 ft | 384 kts | 64° |
| 2026-04-25 20:23 | 43.60147 | 77.57550 | 11693 ft | 388 kts | 76° |
| 2026-04-25 20:23 | 43.60545 | 77.60013 | 12116 ft | 389 kts | 78° |
| 2026-04-25 20:23 | 43.61022 | 77.63658 | 12689 ft | 392 kts | 80° |
| 2026-04-25 20:23 | 43.61433 | 77.67385 | 13242 ft | 395 kts | 81° |
| 2026-04-25 20:24 | 43.61817 | 77.71152 | 13798 ft | 397 kts | 81° |
| 2026-04-25 20:24 | 43.62199 | 77.74943 | 14284 ft | 400 kts | 81° |
| 2026-04-25 20:24 | 43.62591 | 77.78762 | 14788 ft | 402 kts | 81° |
| 2026-04-25 20:24 | 43.62994 | 77.82591 | 15279 ft | 404 kts | 81° |
| 2026-04-25 20:25 | 43.63406 | 77.86444 | 15769 ft | 406 kts | 80° |
| 2026-04-25 20:25 | 43.63824 | 77.90303 | 16255 ft | 408 kts | 80° |
| 2026-04-25 20:25 | 43.64246 | 77.94189 | 16734 ft | 410 kts | 80° |
| 2026-04-25 20:25 | 43.64671 | 77.98095 | 17202 ft | 413 kts | 79° |
| 2026-04-25 20:26 | 43.65097 | 78.02024 | 17646 ft | 415 kts | 79° |
| 2026-04-25 20:26 | 43.65523 | 78.05974 | 18095 ft | 418 kts | 79° |
| 2026-04-25 20:26 | 43.65950 | 78.09952 | 18548 ft | 420 kts | 79° |
| 2026-04-25 20:26 | 43.66378 | 78.13953 | 18931 ft | 422 kts | 79° |
| 2026-04-25 20:27 | 43.66807 | 78.17979 | 19307 ft | 425 kts | 79° |
| 2026-04-25 20:27 | 43.67237 | 78.22030 | 19670 ft | 427 kts | 79° |
| 2026-04-25 20:27 | 43.67667 | 78.26102 | 20049 ft | 429 kts | 79° |
| 2026-04-25 20:27 | 43.68098 | 78.30191 | 20408 ft | 432 kts | 80° |
| 2026-04-25 20:28 | 43.68530 | 78.34312 | 20773 ft | 434 kts | 80° |
| 2026-04-25 20:28 | 43.68963 | 78.38452 | 21139 ft | 436 kts | 80° |
| 2026-04-25 20:28 | 43.69396 | 78.42606 | 21510 ft | 438 kts | 80° |
| 2026-04-25 20:28 | 43.69830 | 78.46786 | 21875 ft | 441 kts | 80° |
| 2026-04-25 20:29 | 43.70266 | 78.50995 | 22216 ft | 443 kts | 80° |
| 2026-04-25 20:29 | 43.70701 | 78.55217 | 22564 ft | 445 kts | 80° |
| 2026-04-25 20:29 | 43.71138 | 78.59465 | 22917 ft | 448 kts | 80° |
| 2026-04-25 20:29 | 43.71576 | 78.63742 | 23271 ft | 450 kts | 80° |
| 2026-04-25 20:30 | 43.72009 | 78.67986 | 23612 ft | 452 kts | 80° |
| 2026-04-25 20:30 | 43.72448 | 78.72300 | 23918 ft | 454 kts | 80° |
| 2026-04-25 20:30 | 43.72887 | 78.76638 | 24202 ft | 457 kts | 80° |
| 2026-04-25 20:30 | 43.73329 | 78.80998 | 24485 ft | 459 kts | 80° |
| 2026-04-25 20:31 | 43.73771 | 78.85372 | 24776 ft | 460 kts | 80° |
| 2026-04-25 20:31 | 43.74212 | 78.89766 | 25068 ft | 462 kts | 80° |
| 2026-04-25 20:31 | 43.74653 | 78.94178 | 25351 ft | 464 kts | 80° |
| 2026-04-25 20:31 | 43.75094 | 78.98613 | 25652 ft | 466 kts | 80° |
| 2026-04-25 20:32 | 43.75534 | 79.03064 | 25934 ft | 468 kts | 80° |
| 2026-04-25 20:32 | 43.75975 | 79.07544 | 26212 ft | 470 kts | 80° |
| 2026-04-25 20:32 | 43.76415 | 79.12032 | 26477 ft | 472 kts | 80° |
| 2026-04-25 20:32 | 43.76856 | 79.16546 | 26758 ft | 474 kts | 80° |
| 2026-04-25 20:33 | 43.77296 | 79.21074 | 27029 ft | 476 kts | 80° |
| 2026-04-25 20:33 | 43.77736 | 79.25616 | 27297 ft | 478 kts | 80° |
| 2026-04-25 20:33 | 43.78178 | 79.30181 | 27563 ft | 480 kts | 80° |
| 2026-04-25 20:33 | 43.78473 | 79.33220 | 27738 ft | 481 kts | 80° |
| 2026-04-25 20:34 | 43.79065 | 79.39368 | 28086 ft | 483 kts | 80° |
| 2026-04-25 20:34 | 43.79506 | 79.43982 | 28348 ft | 485 kts | 80° |
| 2026-04-25 20:34 | 43.79942 | 79.48623 | 28584 ft | 487 kts | 80° |
| 2026-04-25 20:34 | 43.80379 | 79.53284 | 28844 ft | 489 kts | 80° |
| 2026-04-25 20:35 | 43.80818 | 79.57963 | 29085 ft | 491 kts | 80° |
| 2026-04-25 20:35 | 43.81252 | 79.62594 | 29315 ft | 493 kts | 80° |
| 2026-04-25 20:35 | 43.81692 | 79.67304 | 29551 ft | 494 kts | 80° |
| 2026-04-25 20:35 | 43.82131 | 79.72035 | 29787 ft | 496 kts | 80° |
| 2026-04-25 20:36 | 43.82575 | 79.76842 | 30038 ft | 497 kts | 80° |
| 2026-04-25 20:36 | 43.83009 | 79.81582 | 30378 ft | 496 kts | 79° |
| 2026-04-25 20:36 | 43.83436 | 79.86257 | 30641 ft | 496 kts | 79° |
| 2026-04-25 20:36 | 43.83866 | 79.90997 | 30886 ft | 496 kts | 79° |
| 2026-04-25 20:37 | 43.84296 | 79.95755 | 31121 ft | 497 kts | 80° |
| 2026-04-25 20:37 | 43.84723 | 80.00498 | 31370 ft | 497 kts | 80° |
| 2026-04-25 20:37 | 43.85149 | 80.05250 | 31616 ft | 497 kts | 80° |
| 2026-04-25 20:37 | 43.85572 | 80.09995 | 31873 ft | 497 kts | 80° |
| 2026-04-25 20:38 | 43.85995 | 80.14761 | 32131 ft | 497 kts | 80° |
| 2026-04-25 20:38 | 43.86415 | 80.19521 | 32363 ft | 498 kts | 79° |
| 2026-04-25 20:38 | 43.86833 | 80.24282 | 32599 ft | 499 kts | 79° |
| 2026-04-25 20:38 | 43.87251 | 80.29064 | 32850 ft | 499 kts | 80° |
| 2026-04-25 20:39 | 43.87666 | 80.33836 | 33108 ft | 499 kts | 80° |
| 2026-04-25 20:39 | 43.88080 | 80.38611 | 33358 ft | 499 kts | 80° |
| 2026-04-25 20:39 | 43.88491 | 80.43386 | 33600 ft | 499 kts | 80° |
| 2026-04-25 20:39 | 43.88762 | 80.46543 | 33761 ft | 499 kts | 80° |
| 2026-04-25 20:40 | 43.89308 | 80.52943 | 34095 ft | 499 kts | 80° |
| 2026-04-25 20:40 | 43.89714 | 80.57723 | 34301 ft | 500 kts | 80° |
| 2026-04-25 20:40 | 43.90118 | 80.62511 | 34522 ft | 500 kts | 80° |
| 2026-04-25 20:40 | 43.90520 | 80.67298 | 34752 ft | 499 kts | 80° |
| 2026-04-25 20:41 | 43.90920 | 80.72087 | 34966 ft | 499 kts | 80° |
| 2026-04-25 20:41 | 43.91316 | 80.76853 | 35178 ft | 498 kts | 80° |
| 2026-04-25 20:41 | 43.91712 | 80.81637 | 35400 ft | 498 kts | 80° |
| 2026-04-25 20:41 | 43.92104 | 80.86407 | 35587 ft | 498 kts | 80° |
| 2026-04-25 20:42 | 43.92494 | 80.91177 | 35809 ft | 498 kts | 81° |
| 2026-04-25 20:42 | 43.92884 | 80.95961 | 35969 ft | 498 kts | 81° |
| 2026-04-25 20:42 | 43.93267 | 81.00681 | 36152 ft | 499 kts | 81° |
| 2026-04-25 20:42 | 43.93651 | 81.05454 | 36342 ft | 498 kts | 81° |
| 2026-04-25 20:43 | 43.94034 | 81.10239 | 36540 ft | 498 kts | 81° |
| 2026-04-25 20:43 | 43.94416 | 81.15026 | 36730 ft | 498 kts | 81° |
| 2026-04-25 20:43 | 43.94794 | 81.19797 | 36919 ft | 498 kts | 81° |
| 2026-04-25 20:43 | 43.95170 | 81.24574 | 37107 ft | 498 kts | 81° |
| 2026-04-25 20:44 | 43.95545 | 81.29347 | 37292 ft | 498 kts | 81° |
| 2026-04-25 20:44 | 43.95946 | 81.34116 | 37452 ft | 497 kts | 79° |
| 2026-04-25 20:44 | 43.96466 | 81.38857 | 37623 ft | 497 kts | 78° |
| 2026-04-25 20:44 | 43.97059 | 81.43580 | 37797 ft | 496 kts | 77° |
| 2026-04-25 20:45 | 43.97678 | 81.48286 | 37977 ft | 496 kts | 77° |
| 2026-04-25 20:45 | 43.98301 | 81.52994 | 38153 ft | 496 kts | 77° |
| 2026-04-25 20:45 | 43.98916 | 81.57702 | 38317 ft | 495 kts | 77° |
| 2026-04-25 20:45 | 43.99518 | 81.62409 | 38478 ft | 495 kts | 78° |
| 2026-04-25 20:46 | 44.00111 | 81.67126 | 38674 ft | 495 kts | 78° |
| 2026-04-25 20:46 | 44.00697 | 81.71843 | 38800 ft | 496 kts | 78° |
| 2026-04-25 20:46 | 44.01279 | 81.76566 | 38930 ft | 496 kts | 78° |
| 2026-04-25 20:46 | 44.01857 | 81.81288 | 39046 ft | 496 kts | 78° |
| 2026-04-25 20:47 | 44.03001 | 81.90690 | 39239 ft | 497 kts | 78° |
| 2026-04-25 20:47 | 44.04148 | 82.00168 | 39423 ft | 498 kts | 78° |
| 2026-04-25 20:48 | 44.05292 | 82.09689 | 39641 ft | 498 kts | 78° |
| 2026-04-25 20:48 | 44.05860 | 82.14446 | 39748 ft | 498 kts | 78° |
| 2026-04-25 20:48 | 44.06427 | 82.19201 | 39839 ft | 499 kts | 79° |
| 2026-04-25 20:49 | 44.07556 | 82.28734 | 40025 ft | 500 kts | 79° |
| 2026-04-25 20:49 | 44.08119 | 82.33510 | 40129 ft | 500 kts | 79° |
| 2026-04-25 20:49 | 44.08679 | 82.38279 | 40220 ft | 500 kts | 79° |
| 2026-04-25 20:50 | 44.09788 | 82.47789 | 40384 ft | 502 kts | 79° |
| 2026-04-25 20:50 | 44.10899 | 82.57388 | 40510 ft | 503 kts | 79° |
| 2026-04-25 20:51 | 44.12004 | 82.67003 | 40677 ft | 504 kts | 79° |
| 2026-04-25 20:51 | 44.13103 | 82.76633 | 40854 ft | 504 kts | 79° |
| 2026-04-25 20:52 | 44.14011 | 82.84647 | 40922 ft | 505 kts | 80° |
| 2026-04-25 20:52 | 44.14740 | 82.91120 | 41037 ft | 506 kts | 80° |
| 2026-04-25 20:52 | 44.15282 | 82.95956 | 41137 ft | 506 kts | 80° |
| 2026-04-25 20:53 | 44.16360 | 83.05631 | 41235 ft | 505 kts | 80° |
| 2026-04-25 20:53 | 44.17427 | 83.15275 | 41234 ft | 503 kts | 80° |
| 2026-04-25 20:54 | 44.18483 | 83.24890 | 41245 ft | 503 kts | 80° |
| 2026-04-25 20:54 | 44.19531 | 83.34527 | 41247 ft | 503 kts | 80° |
| 2026-04-25 20:55 | 44.20571 | 83.44165 | 41252 ft | 503 kts | 80° |
| 2026-04-25 20:55 | 44.21598 | 83.53761 | 41258 ft | 504 kts | 80° |
| 2026-04-25 20:56 | 44.22621 | 83.63431 | 41242 ft | 504 kts | 80° |
| 2026-04-25 20:56 | 44.23640 | 83.73108 | 41237 ft | 504 kts | 81° |
| 2026-04-25 20:57 | 44.24652 | 83.82791 | 41219 ft | 505 kts | 81° |
| 2026-04-25 20:57 | 44.25654 | 83.92468 | 41228 ft | 504 kts | 81° |
| 2026-04-25 20:58 | 44.26648 | 84.02153 | 41222 ft | 504 kts | 81° |
| 2026-04-25 20:58 | 44.27634 | 84.11845 | 41213 ft | 504 kts | 81° |
| 2026-04-25 20:59 | 44.28611 | 84.21532 | 41207 ft | 504 kts | 81° |
| 2026-04-25 20:59 | 44.29581 | 84.31228 | 41212 ft | 504 kts | 81° |
| 2026-04-25 21:00 | 44.30218 | 84.37654 | 41200 ft | 505 kts | 81° |
| 2026-04-25 21:01 | 44.31964 | 84.55437 | 41202 ft | 505 kts | 81° |
| 2026-04-25 21:01 | 44.32905 | 84.65152 | 41199 ft | 505 kts | 81° |
| 2026-04-25 21:02 | 44.33839 | 84.74876 | 41200 ft | 506 kts | 81° |
| 2026-04-25 21:02 | 44.34766 | 84.84621 | 41191 ft | 506 kts | 81° |
| 2026-04-25 21:03 | 44.35686 | 84.94372 | 41191 ft | 506 kts | 81° |
| 2026-04-25 21:03 | 44.36595 | 85.04128 | 41190 ft | 506 kts | 82° |
| 2026-04-25 21:04 | 44.37492 | 85.13892 | 41189 ft | 507 kts | 82° |
| 2026-04-25 21:04 | 44.38385 | 85.23680 | 41189 ft | 508 kts | 82° |
| 2026-04-25 21:05 | 44.39272 | 85.33462 | 41193 ft | 508 kts | 82° |
| 2026-04-25 21:05 | 44.40152 | 85.43255 | 41202 ft | 508 kts | 82° |
| 2026-04-25 21:06 | 44.41024 | 85.53057 | 41193 ft | 508 kts | 82° |
| 2026-04-25 21:06 | 44.41890 | 85.62883 | 41193 ft | 509 kts | 82° |
| 2026-04-25 21:07 | 44.42746 | 85.72700 | 41192 ft | 509 kts | 82° |
| 2026-04-25 21:07 | 44.43595 | 85.82527 | 41195 ft | 509 kts | 82° |
| 2026-04-25 21:08 | 44.44435 | 85.92358 | 41193 ft | 509 kts | 82° |
| 2026-04-25 21:08 | 44.45126 | 86.00522 | 41196 ft | 509 kts | 82° |
| 2026-04-25 21:09 | 44.46359 | 86.15274 | 41196 ft | 509 kts | 83° |
| 2026-04-25 21:09 | 44.47172 | 86.25116 | 41195 ft | 509 kts | 83° |
| 2026-04-25 21:10 | 44.47976 | 86.34974 | 41193 ft | 510 kts | 83° |
| 2026-04-25 21:10 | 44.48773 | 86.44837 | 41190 ft | 510 kts | 83° |
| 2026-04-25 21:11 | 44.49560 | 86.54694 | 41189 ft | 510 kts | 83° |
| 2026-04-25 21:11 | 44.50340 | 86.64568 | 41195 ft | 510 kts | 83° |
| 2026-04-25 21:12 | 44.51113 | 86.74470 | 41196 ft | 513 kts | 83° |
| 2026-04-25 21:12 | 44.51753 | 86.82761 | 41196 ft | 516 kts | 83° |
| 2026-04-25 21:13 | 44.52649 | 86.94489 | 41195 ft | 518 kts | 83° |
| 2026-04-25 21:13 | 44.53407 | 87.04525 | 41195 ft | 517 kts | 83° |
| 2026-04-25 21:14 | 44.54155 | 87.14554 | 41196 ft | 517 kts | 83° |
| 2026-04-25 21:14 | 44.54893 | 87.24580 | 41197 ft | 517 kts | 83° |
| 2026-04-25 21:15 | 44.55490 | 87.34638 | 41203 ft | 518 kts | 86° |
| 2026-04-25 21:15 | 44.55821 | 87.44713 | 41203 ft | 518 kts | 87° |
| 2026-04-25 21:16 | 44.56110 | 87.54806 | 41199 ft | 518 kts | 87° |
| 2026-04-25 21:16 | 44.56417 | 87.64890 | 41199 ft | 518 kts | 87° |
| 2026-04-25 21:17 | 44.56735 | 87.74977 | 41203 ft | 518 kts | 87° |
| 2026-04-25 21:17 | 44.57050 | 87.85068 | 41203 ft | 518 kts | 87° |
| 2026-04-25 21:18 | 44.57354 | 87.95167 | 41208 ft | 518 kts | 88° |
| 2026-04-25 21:18 | 44.56906 | 88.05243 | 41208 ft | 518 kts | 96° |
| 2026-04-25 21:19 | 44.56053 | 88.15203 | 41206 ft | 518 kts | 97° |
| 2026-04-25 21:19 | 44.55115 | 88.25235 | 41206 ft | 519 kts | 97° |
| 2026-04-25 21:20 | 44.54344 | 88.33638 | 41203 ft | 519 kts | 97° |
| 2026-04-25 21:20 | 44.53284 | 88.45304 | 41203 ft | 519 kts | 97° |
| 2026-04-25 21:21 | 44.52380 | 88.55340 | 41203 ft | 519 kts | 97° |
| 2026-04-25 21:21 | 44.51500 | 88.65371 | 41203 ft | 519 kts | 97° |
| 2026-04-25 21:22 | 44.50617 | 88.75395 | 41203 ft | 519 kts | 97° |
| 2026-04-25 21:22 | 44.49722 | 88.85423 | 41201 ft | 519 kts | 97° |
| 2026-04-25 21:23 | 44.48816 | 88.95443 | 41194 ft | 519 kts | 97° |
| 2026-04-25 21:23 | 44.47899 | 89.05465 | 41195 ft | 519 kts | 97° |
| 2026-04-25 21:24 | 44.46965 | 89.15475 | 41192 ft | 519 kts | 98° |
| 2026-04-25 21:24 | 44.46014 | 89.25480 | 41189 ft | 519 kts | 98° |
| 2026-04-25 21:25 | 44.45053 | 89.35498 | 41192 ft | 520 kts | 98° |
| 2026-04-25 21:25 | 44.44084 | 89.45516 | 41186 ft | 520 kts | 98° |
| 2026-04-25 21:26 | 44.43106 | 89.55535 | 41187 ft | 520 kts | 98° |
| 2026-04-25 21:26 | 44.42119 | 89.65557 | 41186 ft | 520 kts | 99° |
| 2026-04-25 21:27 | 44.40440 | 89.75367 | 41178 ft | 519 kts | 107° |
| 2026-04-25 21:27 | 44.38407 | 89.84996 | 41178 ft | 520 kts | 108° |
| 2026-04-25 21:28 | 44.36284 | 89.94660 | 41186 ft | 520 kts | 108° |
| 2026-04-25 21:28 | 44.34157 | 90.04314 | 41183 ft | 520 kts | 108° |
| 2026-04-25 21:29 | 44.32030 | 90.13984 | 41184 ft | 521 kts | 108° |
| 2026-04-25 21:29 | 44.29899 | 90.23658 | 41186 ft | 521 kts | 108° |
| 2026-04-25 21:30 | 44.27763 | 90.33318 | 41186 ft | 521 kts | 108° |
| 2026-04-25 21:30 | 44.25980 | 90.41341 | 41188 ft | 521 kts | 108° |
| 2026-04-25 21:31 | 44.23460 | 90.52634 | 41184 ft | 522 kts | 108° |
| 2026-04-25 21:31 | 44.21294 | 90.62290 | 41192 ft | 522 kts | 109° |
| 2026-04-25 21:32 | 44.19119 | 90.71944 | 41189 ft | 522 kts | 109° |
| 2026-04-25 21:32 | 44.16935 | 90.81592 | 41189 ft | 522 kts | 109° |
| 2026-04-25 21:33 | 44.14743 | 90.91237 | 41189 ft | 523 kts | 109° |
| 2026-04-25 21:33 | 44.12539 | 91.00892 | 41195 ft | 523 kts | 109° |
| 2026-04-25 21:34 | 44.10330 | 91.10527 | 41202 ft | 523 kts | 109° |
| 2026-04-25 21:34 | 44.08113 | 91.20161 | 41200 ft | 523 kts | 109° |
| 2026-04-25 21:35 | 44.05889 | 91.29781 | 41208 ft | 523 kts | 109° |
| 2026-04-25 21:35 | 44.03657 | 91.39397 | 41208 ft | 523 kts | 109° |
| 2026-04-25 21:36 | 44.01409 | 91.48992 | 41195 ft | 522 kts | 109° |
| 2026-04-25 21:36 | 43.99145 | 91.58560 | 41209 ft | 520 kts | 110° |
| 2026-04-25 21:37 | 43.97262 | 91.66480 | 41205 ft | 519 kts | 110° |
| 2026-04-25 21:37 | 43.94609 | 91.77603 | 41211 ft | 519 kts | 110° |
| 2026-04-25 21:38 | 43.92347 | 91.87046 | 41210 ft | 519 kts | 110° |
| 2026-04-25 21:38 | 43.90061 | 91.96548 | 41213 ft | 520 kts | 110° |
| 2026-04-25 21:39 | 43.87766 | 92.06050 | 41214 ft | 520 kts | 110° |
| 2026-04-25 21:39 | 43.85460 | 92.15559 | 41216 ft | 520 kts | 110° |
| 2026-04-25 21:40 | 43.83148 | 92.25052 | 41217 ft | 520 kts | 110° |
| 2026-04-25 21:40 | 43.80824 | 92.34550 | 41216 ft | 521 kts | 110° |
| 2026-04-25 21:41 | 43.78491 | 92.44048 | 41217 ft | 521 kts | 110° |
| 2026-04-25 21:41 | 43.76148 | 92.53550 | 41216 ft | 521 kts | 110° |
| 2026-04-25 21:42 | 43.73802 | 92.63025 | 41214 ft | 521 kts | 110° |
| 2026-04-25 21:42 | 43.71456 | 92.72457 | 41206 ft | 522 kts | 110° |
| 2026-04-25 21:43 | 43.69088 | 92.81941 | 41207 ft | 522 kts | 110° |
| 2026-04-25 21:43 | 43.66712 | 92.91418 | 41212 ft | 522 kts | 110° |
| 2026-04-25 21:44 | 43.64341 | 93.00893 | 41209 ft | 522 kts | 110° |
| 2026-04-25 21:45 | 43.60922 | 93.15180 | 41199 ft | 522 kts | 109° |
| 2026-04-25 21:45 | 43.58652 | 93.24701 | 41198 ft | 522 kts | 109° |
| 2026-04-25 21:46 | 43.56364 | 93.34216 | 41197 ft | 523 kts | 110° |
| 2026-04-25 21:46 | 43.54058 | 93.43740 | 41196 ft | 523 kts | 110° |
| 2026-04-25 21:47 | 43.51744 | 93.53250 | 41186 ft | 523 kts | 110° |
| 2026-04-25 21:47 | 43.49441 | 93.62681 | 41184 ft | 523 kts | 110° |
| 2026-04-25 21:48 | 43.47110 | 93.72184 | 41184 ft | 523 kts | 110° |
| 2026-04-25 21:48 | 43.44773 | 93.81675 | 41179 ft | 523 kts | 110° |
| 2026-04-25 21:49 | 43.42424 | 93.91175 | 41177 ft | 524 kts | 110° |
| 2026-04-25 21:49 | 43.40069 | 94.00661 | 41176 ft | 525 kts | 110° |
| 2026-04-25 21:50 | 43.37719 | 94.10089 | 41178 ft | 525 kts | 110° |
| 2026-04-25 21:50 | 43.35344 | 94.19574 | 41151 ft | 524 kts | 110° |
| 2026-04-25 21:51 | 43.32963 | 94.29050 | 41167 ft | 526 kts | 110° |
| 2026-04-25 21:51 | 43.30565 | 94.38552 | 41167 ft | 527 kts | 110° |
| 2026-04-25 21:52 | 43.28158 | 94.48049 | 41163 ft | 526 kts | 110° |
| 2026-04-25 21:52 | 43.25743 | 94.57543 | 41162 ft | 526 kts | 110° |
| 2026-04-25 21:53 | 43.23319 | 94.67032 | 41151 ft | 527 kts | 110° |
| 2026-04-25 21:53 | 43.20885 | 94.76523 | 41137 ft | 528 kts | 110° |
| 2026-04-25 21:54 | 43.18443 | 94.86008 | 41134 ft | 528 kts | 111° |
| 2026-04-25 21:54 | 43.16407 | 94.93885 | 41118 ft | 528 kts | 111° |
| 2026-04-25 21:55 | 43.13547 | 95.04908 | 41106 ft | 528 kts | 110° |
| 2026-04-25 21:55 | 43.11986 | 95.13070 | 41108 ft | 529 kts | 102° |
| 2026-04-25 21:56 | 43.10520 | 95.22953 | 41104 ft | 530 kts | 101° |
| 2026-04-25 21:56 | 43.09144 | 95.32816 | 41101 ft | 530 kts | 101° |
| 2026-04-25 21:57 | 43.07756 | 95.42724 | 41104 ft | 530 kts | 101° |
| 2026-04-25 21:57 | 43.06345 | 95.52623 | 41100 ft | 530 kts | 101° |
| 2026-04-25 21:58 | 43.04921 | 95.62500 | 41099 ft | 530 kts | 101° |
| 2026-04-25 21:58 | 43.03483 | 95.72397 | 41106 ft | 530 kts | 101° |
| 2026-04-25 21:59 | 43.02048 | 95.82213 | 41109 ft | 530 kts | 101° |
| 2026-04-25 21:59 | 43.00597 | 95.92086 | 41108 ft | 530 kts | 101° |
| 2026-04-25 22:00 | 42.98400 | 96.06907 | 41112 ft | 530 kts | 101° |
| 2026-04-25 22:00 | 42.96926 | 96.16776 | 41117 ft | 530 kts | 101° |
| 2026-04-25 22:01 | 42.95445 | 96.26633 | 41118 ft | 530 kts | 101° |
| 2026-04-25 22:01 | 42.94207 | 96.34825 | 41117 ft | 530 kts | 102° |
| 2026-04-25 22:02 | 42.92457 | 96.46332 | 41119 ft | 530 kts | 102° |
| 2026-04-25 22:02 | 42.90951 | 96.56172 | 41111 ft | 530 kts | 102° |
| 2026-04-25 22:03 | 42.89445 | 96.65952 | 41114 ft | 530 kts | 102° |
| 2026-04-25 22:03 | 42.87919 | 96.75803 | 41112 ft | 530 kts | 102° |
| 2026-04-25 22:04 | 42.86386 | 96.85635 | 41114 ft | 530 kts | 102° |
| 2026-04-25 22:04 | 42.84845 | 96.95464 | 41110 ft | 531 kts | 102° |
| 2026-04-25 22:05 | 42.83293 | 97.05306 | 41112 ft | 531 kts | 102° |
| 2026-04-25 22:05 | 42.81731 | 97.15149 | 41107 ft | 531 kts | 102° |
| 2026-04-25 22:06 | 42.80172 | 97.24916 | 41106 ft | 531 kts | 102° |
| 2026-04-25 22:06 | 42.78595 | 97.34738 | 41101 ft | 531 kts | 102° |
| 2026-04-25 22:07 | 42.77268 | 97.42960 | 41105 ft | 531 kts | 102° |
| 2026-04-25 22:07 | 42.75416 | 97.54370 | 41104 ft | 531 kts | 102° |
| 2026-04-25 22:08 | 42.73811 | 97.64194 | 41103 ft | 531 kts | 102° |
| 2026-04-25 22:08 | 42.72207 | 97.73956 | 41102 ft | 532 kts | 102° |
| 2026-04-25 22:09 | 42.70584 | 97.83780 | 41093 ft | 532 kts | 102° |
| 2026-04-25 22:09 | 42.68953 | 97.93595 | 41091 ft | 532 kts | 103° |
| 2026-04-25 22:10 | 42.67313 | 98.03409 | 41094 ft | 532 kts | 103° |
| 2026-04-25 22:10 | 42.65663 | 98.13226 | 41090 ft | 533 kts | 103° |
| 2026-04-25 22:11 | 42.64005 | 98.23042 | 41084 ft | 533 kts | 103° |
| 2026-04-25 22:11 | 42.62346 | 98.32803 | 41081 ft | 533 kts | 103° |
| 2026-04-25 22:12 | 42.60668 | 98.42620 | 41078 ft | 534 kts | 103° |
| 2026-04-25 22:12 | 42.59268 | 98.50777 | 41072 ft | 534 kts | 103° |
| 2026-04-25 22:13 | 42.57285 | 98.62254 | 41072 ft | 534 kts | 103° |
| 2026-04-25 22:13 | 42.55582 | 98.72062 | 41073 ft | 534 kts | 103° |
| 2026-04-25 22:14 | 42.53880 | 98.81801 | 41069 ft | 535 kts | 103° |
| 2026-04-25 22:14 | 42.52155 | 98.91626 | 41069 ft | 535 kts | 103° |
| 2026-04-25 22:15 | 42.50424 | 99.01432 | 41066 ft | 535 kts | 103° |
| 2026-04-25 22:16 | 42.47811 | 99.16132 | 41067 ft | 535 kts | 103° |
| 2026-04-25 22:16 | 42.46055 | 99.25941 | 41058 ft | 536 kts | 103° |
| 2026-04-25 22:17 | 42.44293 | 99.35742 | 41061 ft | 536 kts | 103° |
| 2026-04-25 22:17 | 42.42522 | 99.45534 | 41048 ft | 536 kts | 103° |
| 2026-04-25 22:18 | 42.40741 | 99.55327 | 41050 ft | 536 kts | 103° |
| 2026-04-25 22:18 | 42.38962 | 99.65065 | 41050 ft | 537 kts | 103° |
| 2026-04-25 22:19 | 42.37164 | 99.74854 | 41043 ft | 537 kts | 103° |
| 2026-04-25 22:19 | 42.35355 | 99.84647 | 41041 ft | 537 kts | 103° |
| 2026-04-25 22:20 | 42.33537 | 99.94440 | 41034 ft | 537 kts | 103° |
| 2026-04-25 22:20 | 42.31711 | 100.04230 | 41029 ft | 537 kts | 103° |
| 2026-04-25 22:21 | 42.29873 | 100.14031 | 41023 ft | 537 kts | 103° |
| 2026-04-25 22:21 | 42.28041 | 100.23751 | 41026 ft | 537 kts | 103° |
| 2026-04-25 22:22 | 42.26175 | 100.33595 | 41021 ft | 538 kts | 103° |
| 2026-04-25 22:22 | 42.24326 | 100.43308 | 41017 ft | 538 kts | 104° |
| 2026-04-25 22:23 | 42.22453 | 100.53096 | 41018 ft | 538 kts | 104° |
| 2026-04-25 22:23 | 42.20573 | 100.62872 | 41018 ft | 539 kts | 104° |
| 2026-04-25 22:24 | 42.18681 | 100.72660 | 41012 ft | 539 kts | 104° |
| 2026-04-25 22:24 | 42.16779 | 100.82449 | 41012 ft | 539 kts | 104° |
| 2026-04-25 22:25 | 42.14871 | 100.92222 | 41009 ft | 539 kts | 104° |
| 2026-04-25 22:25 | 42.12953 | 101.01999 | 41004 ft | 539 kts | 104° |
| 2026-04-25 22:26 | 42.10743 | 101.11663 | 41004 ft | 540 kts | 109° |
| 2026-04-25 22:26 | 42.08197 | 101.21175 | 41004 ft | 540 kts | 110° |
| 2026-04-25 22:27 | 42.05642 | 101.30609 | 41018 ft | 540 kts | 110° |
| 2026-04-25 22:27 | 42.03105 | 101.40117 | 40997 ft | 540 kts | 109° |
| 2026-04-25 22:28 | 42.00582 | 101.49636 | 40999 ft | 540 kts | 109° |
| 2026-04-25 22:28 | 41.98058 | 101.59149 | 40998 ft | 540 kts | 109° |
| 2026-04-25 22:29 | 41.95524 | 101.68658 | 41005 ft | 540 kts | 109° |
| 2026-04-25 22:29 | 41.92980 | 101.78158 | 40999 ft | 541 kts | 109° |
| 2026-04-25 22:30 | 41.89160 | 101.92352 | 40999 ft | 541 kts | 110° |
| 2026-04-25 22:30 | 41.87030 | 102.00233 | 40998 ft | 541 kts | 110° |
| 2026-04-25 22:31 | 41.84018 | 102.11330 | 40997 ft | 541 kts | 110° |
| 2026-04-25 22:31 | 41.81434 | 102.20814 | 40996 ft | 542 kts | 110° |
| 2026-04-25 22:32 | 41.78843 | 102.30288 | 40996 ft | 542 kts | 110° |
| 2026-04-25 22:32 | 41.76257 | 102.39706 | 40995 ft | 541 kts | 110° |
| 2026-04-25 22:33 | 41.73650 | 102.49167 | 40998 ft | 541 kts | 110° |
| 2026-04-25 22:33 | 41.71036 | 102.58615 | 40980 ft | 541 kts | 110° |
| 2026-04-25 22:34 | 41.68411 | 102.68070 | 41000 ft | 542 kts | 110° |
| 2026-04-25 22:34 | 41.65777 | 102.77522 | 41020 ft | 542 kts | 110° |
| 2026-04-25 22:35 | 41.63133 | 102.86975 | 41000 ft | 543 kts | 110° |
| 2026-04-25 22:35 | 41.60480 | 102.96432 | 41001 ft | 543 kts | 110° |
| 2026-04-25 22:36 | 41.57820 | 103.05871 | 41001 ft | 543 kts | 110° |
| 2026-04-25 22:36 | 41.55164 | 103.15253 | 41010 ft | 543 kts | 110° |
| 2026-04-25 22:37 | 41.52483 | 103.24692 | 41002 ft | 544 kts | 110° |
| 2026-04-25 22:37 | 41.49790 | 103.34140 | 40997 ft | 544 kts | 110° |
| 2026-04-25 22:38 | 41.47090 | 103.43576 | 41010 ft | 544 kts | 110° |
| 2026-04-25 22:38 | 41.44379 | 103.53013 | 41002 ft | 544 kts | 110° |
| 2026-04-25 22:39 | 41.41664 | 103.62432 | 41003 ft | 545 kts | 110° |
| 2026-04-25 22:39 | 41.38955 | 103.71797 | 41004 ft | 545 kts | 110° |
| 2026-04-25 22:40 | 41.36223 | 103.81209 | 40978 ft | 545 kts | 110° |
| 2026-04-25 22:40 | 41.33478 | 103.90628 | 41009 ft | 546 kts | 110° |
| 2026-04-25 22:41 | 41.30724 | 104.00043 | 40999 ft | 546 kts | 110° |
| 2026-04-25 22:41 | 41.27959 | 104.09463 | 40998 ft | 546 kts | 110° |
| 2026-04-25 22:42 | 41.25189 | 104.18866 | 41003 ft | 546 kts | 110° |
| 2026-04-25 22:42 | 41.22413 | 104.28255 | 40998 ft | 546 kts | 110° |
| 2026-04-25 22:43 | 41.20097 | 104.36062 | 40996 ft | 547 kts | 110° |
| 2026-04-25 22:43 | 41.17302 | 104.45456 | 40996 ft | 547 kts | 110° |
| 2026-04-25 22:44 | 41.14497 | 104.54845 | 40995 ft | 547 kts | 111° |
| 2026-04-25 22:44 | 41.11687 | 104.64223 | 40995 ft | 547 kts | 111° |
| 2026-04-25 22:45 | 41.09776 | 104.73895 | 41002 ft | 541 kts | 95° |
| 2026-04-25 22:45 | 41.08964 | 104.83810 | 41002 ft | 540 kts | 91° |
| 2026-04-25 22:46 | 41.08360 | 104.93678 | 41013 ft | 540 kts | 91° |
| 2026-04-25 22:46 | 41.07757 | 105.03672 | 41001 ft | 541 kts | 91° |
| 2026-04-25 22:47 | 41.07125 | 105.13558 | 41004 ft | 541 kts | 91° |
| 2026-04-25 22:47 | 41.06464 | 105.23508 | 41011 ft | 541 kts | 91° |
| 2026-04-25 22:48 | 41.05791 | 105.33446 | 41015 ft | 541 kts | 91° |
| 2026-04-25 22:48 | 41.05111 | 105.43383 | 41014 ft | 542 kts | 91° |
| 2026-04-25 22:49 | 41.04422 | 105.53328 | 41015 ft | 542 kts | 91° |
| 2026-04-25 22:49 | 41.03729 | 105.63223 | 41015 ft | 542 kts | 91° |
| 2026-04-25 22:50 | 41.03024 | 105.73152 | 41014 ft | 541 kts | 91° |
| 2026-04-25 22:50 | 41.02312 | 105.83060 | 41017 ft | 540 kts | 92° |
| 2026-04-25 22:51 | 41.01591 | 105.92976 | 41022 ft | 540 kts | 92° |
| 2026-04-25 22:51 | 41.00863 | 106.02871 | 41026 ft | 540 kts | 92° |
| 2026-04-25 22:52 | 41.00127 | 106.12759 | 41022 ft | 538 kts | 92° |
| 2026-04-25 22:52 | 40.99511 | 106.20946 | 41030 ft | 538 kts | 92° |
| 2026-04-25 22:53 | 40.98635 | 106.32460 | 41031 ft | 538 kts | 92° |
| 2026-04-25 22:53 | 40.97877 | 106.42299 | 41029 ft | 537 kts | 92° |
| 2026-04-25 22:54 | 40.97112 | 106.52118 | 41034 ft | 536 kts | 92° |
| 2026-04-25 22:54 | 40.96339 | 106.61935 | 41042 ft | 536 kts | 92° |
| 2026-04-25 22:55 | 40.95561 | 106.71697 | 41043 ft | 536 kts | 92° |
| 2026-04-25 22:55 | 40.94775 | 106.81503 | 41039 ft | 537 kts | 92° |
| 2026-04-25 22:56 | 40.93974 | 106.91324 | 41034 ft | 537 kts | 92° |
| 2026-04-25 22:56 | 40.93165 | 107.01144 | 41037 ft | 536 kts | 92° |
| 2026-04-25 22:57 | 40.92350 | 107.10935 | 41028 ft | 536 kts | 92° |
| 2026-04-25 22:57 | 40.91528 | 107.20731 | 41029 ft | 536 kts | 92° |
| 2026-04-25 22:58 | 40.90698 | 107.30518 | 41028 ft | 536 kts | 92° |
| 2026-04-25 22:58 | 40.89858 | 107.40318 | 41036 ft | 536 kts | 92° |
| 2026-04-25 22:59 | 40.89016 | 107.50034 | 41028 ft | 536 kts | 92° |
| 2026-04-25 22:59 | 40.88161 | 107.59819 | 41034 ft | 535 kts | 92° |
| 2026-04-25 23:00 | 40.87297 | 107.69600 | 41041 ft | 536 kts | 93° |
| 2026-04-25 23:00 | 40.86426 | 107.79368 | 41033 ft | 535 kts | 93° |
| 2026-04-25 23:01 | 40.85546 | 107.89131 | 41024 ft | 535 kts | 93° |
| 2026-04-25 23:01 | 40.84659 | 107.98888 | 41022 ft | 535 kts | 93° |
| 2026-04-25 23:02 | 40.83764 | 108.08640 | 41021 ft | 535 kts | 93° |
| 2026-04-25 23:02 | 40.82861 | 108.18394 | 41019 ft | 535 kts | 93° |
| 2026-04-25 23:03 | 40.81954 | 108.28092 | 41022 ft | 535 kts | 93° |
| 2026-04-25 23:03 | 40.81033 | 108.37848 | 41024 ft | 535 kts | 93° |
| 2026-04-25 23:04 | 40.80256 | 108.46008 | 41027 ft | 535 kts | 93° |
| 2026-04-25 23:04 | 40.79167 | 108.57346 | 41023 ft | 535 kts | 94° |
| 2026-04-25 23:05 | 40.78224 | 108.67074 | 41024 ft | 535 kts | 94° |
| 2026-04-25 23:05 | 40.77272 | 108.76806 | 41015 ft | 535 kts | 94° |
| 2026-04-25 23:06 | 40.76311 | 108.86539 | 41016 ft | 535 kts | 94° |
| 2026-04-25 23:06 | 40.75348 | 108.96210 | 41014 ft | 535 kts | 94° |
| 2026-04-25 23:07 | 40.74365 | 109.05995 | 41012 ft | 535 kts | 94° |
| 2026-04-25 23:07 | 40.73387 | 109.15642 | 41020 ft | 534 kts | 94° |
| 2026-04-25 23:08 | 40.72395 | 109.25348 | 41014 ft | 534 kts | 94° |
| 2026-04-25 23:08 | 40.71396 | 109.35072 | 41029 ft | 535 kts | 94° |
| 2026-04-25 23:09 | 40.70387 | 109.44785 | 41014 ft | 534 kts | 94° |
| 2026-04-25 23:09 | 40.69366 | 109.54485 | 41024 ft | 534 kts | 94° |
| 2026-04-25 23:10 | 40.68342 | 109.64178 | 41027 ft | 534 kts | 94° |
| 2026-04-25 23:10 | 40.67312 | 109.73857 | 41024 ft | 533 kts | 94° |
| 2026-04-25 23:11 | 40.66273 | 109.83539 | 41028 ft | 533 kts | 94° |
| 2026-04-25 23:11 | 40.65227 | 109.93201 | 41031 ft | 533 kts | 95° |
| 2026-04-25 23:12 | 40.64670 | 110.02871 | 41024 ft | 528 kts | 87° |
| 2026-04-25 23:12 | 40.64560 | 110.12484 | 41027 ft | 528 kts | 86° |
| 2026-04-25 23:13 | 40.64524 | 110.22146 | 41031 ft | 527 kts | 85° |
| 2026-04-25 23:13 | 40.64483 | 110.31798 | 41032 ft | 527 kts | 86° |
| 2026-04-25 23:14 | 40.64422 | 110.41457 | 41029 ft | 528 kts | 86° |
| 2026-04-25 23:14 | 40.64348 | 110.51116 | 41037 ft | 527 kts | 86° |
| 2026-04-25 23:15 | 40.64264 | 110.60773 | 41035 ft | 527 kts | 86° |
| 2026-04-25 23:15 | 40.64173 | 110.70421 | 41039 ft | 527 kts | 86° |
| 2026-04-25 23:16 | 40.64073 | 110.80075 | 41040 ft | 528 kts | 86° |
| 2026-04-25 23:16 | 40.63968 | 110.89732 | 41037 ft | 527 kts | 86° |
| 2026-04-25 23:17 | 40.63854 | 110.99378 | 41041 ft | 527 kts | 86° |
| 2026-04-25 23:17 | 40.63733 | 111.09025 | 41038 ft | 527 kts | 86° |
| 2026-04-25 23:18 | 40.63603 | 111.18672 | 41039 ft | 527 kts | 86° |
| 2026-04-25 23:18 | 40.63465 | 111.28307 | 41041 ft | 526 kts | 87° |
| 2026-04-25 23:19 | 40.63319 | 111.37938 | 41040 ft | 526 kts | 87° |
| 2026-04-25 23:19 | 40.63166 | 111.47568 | 41043 ft | 526 kts | 87° |
| 2026-04-25 23:20 | 40.63004 | 111.57198 | 41038 ft | 526 kts | 87° |
| 2026-04-25 23:20 | 40.62834 | 111.66834 | 41047 ft | 526 kts | 87° |
| 2026-04-25 23:21 | 40.62656 | 111.76470 | 41047 ft | 526 kts | 87° |
| 2026-04-25 23:21 | 40.62471 | 111.86106 | 41047 ft | 526 kts | 87° |
| 2026-04-25 23:22 | 40.62293 | 111.95729 | 41047 ft | 526 kts | 87° |
| 2026-04-25 23:23 | 40.61979 | 112.10172 | 41053 ft | 526 kts | 88° |
| 2026-04-25 23:23 | 40.61759 | 112.19797 | 41058 ft | 526 kts | 88° |
| 2026-04-25 23:24 | 40.61536 | 112.29350 | 41073 ft | 526 kts | 88° |
| 2026-04-25 23:24 | 40.61303 | 112.38974 | 41065 ft | 525 kts | 88° |
| 2026-04-25 23:25 | 40.61062 | 112.48580 | 41052 ft | 525 kts | 89° |
| 2026-04-25 23:25 | 40.60616 | 112.58196 | 41068 ft | 527 kts | 91° |
| 2026-04-25 23:26 | 40.60033 | 112.67806 | 41062 ft | 526 kts | 91° |
| 2026-04-25 23:26 | 40.59374 | 112.77395 | 41065 ft | 527 kts | 93° |
| 2026-04-25 23:27 | 40.58618 | 112.86918 | 41065 ft | 526 kts | 92° |
| 2026-04-25 23:27 | 40.57960 | 112.96507 | 41060 ft | 525 kts | 91° |
| 2026-04-25 23:28 | 40.57328 | 113.06098 | 41063 ft | 525 kts | 91° |
| 2026-04-25 23:28 | 40.56798 | 113.14052 | 41074 ft | 525 kts | 92° |
| 2026-04-25 23:29 | 40.56146 | 113.23618 | 41063 ft | 525 kts | 92° |
| 2026-04-25 23:29 | 40.55374 | 113.34742 | 41069 ft | 525 kts | 92° |
| 2026-04-25 23:30 | 40.54812 | 113.42742 | 41064 ft | 525 kts | 92° |
| 2026-04-25 23:30 | 40.54137 | 113.52253 | 41061 ft | 524 kts | 92° |
| 2026-04-25 23:31 | 40.53451 | 113.61786 | 41061 ft | 524 kts | 92° |
| 2026-04-25 23:31 | 40.52758 | 113.71323 | 41058 ft | 524 kts | 92° |
| 2026-04-25 23:32 | 40.52056 | 113.80866 | 41057 ft | 524 kts | 92° |
| 2026-04-25 23:32 | 40.51347 | 113.90394 | 41049 ft | 524 kts | 92° |
| 2026-04-25 23:33 | 40.50643 | 113.99932 | 41061 ft | 524 kts | 91° |
| 2026-04-25 23:33 | 40.50178 | 114.09415 | 41043 ft | 522 kts | 90° |
| 2026-04-25 23:34 | 40.49816 | 114.18944 | 41042 ft | 522 kts | 90° |
| 2026-04-25 23:34 | 40.49437 | 114.28476 | 41037 ft | 522 kts | 90° |
| 2026-04-25 23:35 | 40.49026 | 114.37996 | 41038 ft | 522 kts | 90° |
| 2026-04-25 23:35 | 40.48598 | 114.47525 | 41033 ft | 522 kts | 90° |
| 2026-04-25 23:36 | 40.48161 | 114.57044 | 41030 ft | 522 kts | 90° |
| 2026-04-25 23:36 | 40.47717 | 114.66561 | 41023 ft | 522 kts | 91° |
| 2026-04-25 23:37 | 40.47267 | 114.76081 | 41026 ft | 522 kts | 91° |
| 2026-04-25 23:37 | 40.46809 | 114.85600 | 41018 ft | 522 kts | 91° |
| 2026-04-25 23:38 | 40.46343 | 114.95064 | 41015 ft | 522 kts | 91° |
| 2026-04-25 23:38 | 40.45871 | 115.04574 | 41016 ft | 522 kts | 91° |
| 2026-04-25 23:39 | 40.45389 | 115.14082 | 41014 ft | 522 kts | 91° |
| 2026-04-25 23:39 | 40.44898 | 115.23584 | 41007 ft | 521 kts | 91° |
| 2026-04-25 23:40 | 40.44400 | 115.33093 | 41014 ft | 522 kts | 91° |
| 2026-04-25 23:40 | 40.43895 | 115.42591 | 41001 ft | 522 kts | 91° |
| 2026-04-25 23:41 | 40.42839 | 115.52025 | 40997 ft | 525 kts | 106° |
| 2026-04-25 23:41 | 40.41518 | 115.56490 | 40993 ft | 525 kts | 117° |
| 2026-04-25 23:41 | 40.39788 | 115.60707 | 40994 ft | 525 kts | 120° |
| 2026-04-25 23:42 | 40.36028 | 115.68877 | 40987 ft | 527 kts | 123° |
| 2026-04-25 23:42 | 40.32111 | 115.77010 | 40975 ft | 528 kts | 123° |
| 2026-04-25 23:43 | 40.28198 | 115.85170 | 40972 ft | 528 kts | 122° |
| 2026-04-25 23:43 | 40.24317 | 115.93328 | 40960 ft | 528 kts | 122° |
| 2026-04-25 23:44 | 40.20443 | 116.01487 | 40947 ft | 528 kts | 122° |
| 2026-04-25 23:44 | 40.16550 | 116.09655 | 40947 ft | 528 kts | 122° |
| 2026-04-25 23:45 | 40.12684 | 116.17742 | 40936 ft | 528 kts | 122° |
| 2026-04-25 23:45 | 40.08784 | 116.25881 | 40926 ft | 528 kts | 122° |
| 2026-04-25 23:46 | 40.04880 | 116.34007 | 40926 ft | 527 kts | 123° |
| 2026-04-25 23:46 | 40.00979 | 116.42105 | 40922 ft | 526 kts | 123° |
| 2026-04-25 23:47 | 39.97072 | 116.50194 | 40922 ft | 526 kts | 123° |
| 2026-04-25 23:47 | 39.93164 | 116.58266 | 40930 ft | 526 kts | 123° |
| 2026-04-25 23:48 | 39.89270 | 116.66288 | 40919 ft | 527 kts | 123° |
| 2026-04-25 23:48 | 39.85350 | 116.74340 | 40921 ft | 527 kts | 123° |
| 2026-04-25 23:49 | 39.81421 | 116.82391 | 40922 ft | 527 kts | 123° |
| 2026-04-25 23:49 | 39.77602 | 116.90526 | 40911 ft | 526 kts | 121° |
| 2026-04-25 23:50 | 39.73994 | 116.98779 | 40917 ft | 525 kts | 120° |
| 2026-04-25 23:50 | 39.70407 | 117.07037 | 40911 ft | 524 kts | 120° |
| 2026-04-25 23:51 | 39.66815 | 117.15214 | 40913 ft | 524 kts | 120° |
| 2026-04-25 23:51 | 39.63183 | 117.23416 | 40912 ft | 524 kts | 121° |
| 2026-04-25 23:52 | 39.59543 | 117.31603 | 40916 ft | 523 kts | 121° |
| 2026-04-25 23:52 | 39.55906 | 117.39762 | 40910 ft | 523 kts | 121° |
| 2026-04-25 23:53 | 39.52257 | 117.47931 | 40907 ft | 523 kts | 121° |
| 2026-04-25 23:53 | 39.48607 | 117.56082 | 40918 ft | 522 kts | 121° |
| 2026-04-25 23:54 | 39.44959 | 117.64206 | 40920 ft | 522 kts | 121° |
| 2026-04-25 23:54 | 39.41307 | 117.72322 | 40923 ft | 522 kts | 121° |
| 2026-04-25 23:55 | 39.37672 | 117.80377 | 40918 ft | 522 kts | 121° |
| 2026-04-25 23:55 | 39.34147 | 117.88591 | 40923 ft | 522 kts | 113° |
| 2026-04-25 23:56 | 39.32004 | 117.97505 | 40925 ft | 520 kts | 103° |
| 2026-04-25 23:56 | 39.30381 | 118.06616 | 40930 ft | 521 kts | 101° |
| 2026-04-25 23:57 | 39.28848 | 118.15756 | 40934 ft | 520 kts | 101° |
| 2026-04-25 23:57 | 39.27304 | 118.24829 | 40942 ft | 520 kts | 101° |
| 2026-04-25 23:58 | 39.25720 | 118.33940 | 40950 ft | 520 kts | 101° |
| 2026-04-25 23:58 | 39.24120 | 118.43050 | 40958 ft | 521 kts | 102° |
| 2026-04-25 23:59 | 39.22497 | 118.52234 | 40960 ft | 522 kts | 102° |
| 2026-04-25 23:59 | 39.20889 | 118.61295 | 40963 ft | 522 kts | 102° |
| 2026-04-26 00:00 | 39.19263 | 118.70418 | 40969 ft | 523 kts | 102° |
| 2026-04-26 00:00 | 39.17620 | 118.79581 | 40971 ft | 526 kts | 102° |
| 2026-04-26 00:01 | 39.15969 | 118.88762 | 40971 ft | 526 kts | 102° |
| 2026-04-26 00:01 | 39.13470 | 118.97607 | 40972 ft | 526 kts | 116° |
| 2026-04-26 00:02 | 39.10116 | 119.05990 | 40971 ft | 527 kts | 119° |
| 2026-04-26 00:02 | 39.06592 | 119.14284 | 40971 ft | 528 kts | 119° |
| 2026-04-26 00:03 | 39.03057 | 119.22555 | 40971 ft | 528 kts | 119° |
| 2026-04-26 00:03 | 38.99539 | 119.30831 | 40968 ft | 527 kts | 119° |
| 2026-04-26 00:04 | 38.96030 | 119.39095 | 40969 ft | 527 kts | 119° |
| 2026-04-26 00:04 | 38.92517 | 119.47357 | 40966 ft | 527 kts | 119° |
| 2026-04-26 00:05 | 38.89002 | 119.55599 | 40968 ft | 527 kts | 119° |
| 2026-04-26 00:05 | 38.85477 | 119.63841 | 40966 ft | 527 kts | 119° |
| 2026-04-26 00:06 | 38.81947 | 119.72071 | 40960 ft | 527 kts | 119° |
| 2026-04-26 00:06 | 38.78319 | 119.80225 | 40964 ft | 525 kts | 126° |
| 2026-04-26 00:07 | 38.73470 | 119.87131 | 40960 ft | 521 kts | 139° |
| 2026-04-26 00:07 | 38.68364 | 119.93723 | 40960 ft | 524 kts | 129° |
| 2026-04-26 00:07 | 38.66361 | 119.97624 | 40963 ft | 525 kts | 117° |
| 2026-04-26 00:08 | 38.64954 | 120.01929 | 40959 ft | 524 kts | 105° |
| 2026-04-26 00:08 | 38.63178 | 120.10961 | 40963 ft | 524 kts | 100° |
| 2026-04-26 00:09 | 38.61739 | 120.20092 | 40966 ft | 523 kts | 99° |
| 2026-04-26 00:09 | 38.60332 | 120.29206 | 40966 ft | 522 kts | 99° |
| 2026-04-26 00:10 | 38.58883 | 120.38308 | 40967 ft | 522 kts | 100° |
| 2026-04-26 00:10 | 38.57402 | 120.47385 | 40972 ft | 521 kts | 100° |
| 2026-04-26 00:11 | 38.55913 | 120.56434 | 40967 ft | 520 kts | 100° |
| 2026-04-26 00:11 | 38.54441 | 120.65487 | 40987 ft | 520 kts | 100° |
| 2026-04-26 00:12 | 38.52984 | 120.74473 | 40974 ft | 520 kts | 100° |
| 2026-04-26 00:12 | 38.51509 | 120.83518 | 40976 ft | 521 kts | 100° |
| 2026-04-26 00:13 | 38.50020 | 120.92575 | 40970 ft | 522 kts | 100° |
| 2026-04-26 00:13 | 38.48519 | 121.01635 | 40974 ft | 521 kts | 101° |
| 2026-04-26 00:14 | 38.47016 | 121.10672 | 40976 ft | 520 kts | 101° |
| 2026-04-26 00:14 | 38.45524 | 121.19704 | 40977 ft | 520 kts | 100° |
| 2026-04-26 00:15 | 38.44059 | 121.28740 | 40976 ft | 519 kts | 100° |
| 2026-04-26 00:15 | 38.42608 | 121.37750 | 40974 ft | 518 kts | 100° |
| 2026-04-26 00:16 | 38.41150 | 121.46748 | 40977 ft | 518 kts | 101° |
| 2026-04-26 00:16 | 38.39918 | 121.54214 | 40976 ft | 518 kts | 101° |
| 2026-04-26 00:17 | 38.38418 | 121.63187 | 40979 ft | 517 kts | 101° |
| 2026-04-26 00:17 | 38.36915 | 121.72136 | 40976 ft | 517 kts | 101° |
| 2026-04-26 00:18 | 38.35406 | 121.81087 | 40974 ft | 517 kts | 101° |
| 2026-04-26 00:18 | 38.33889 | 121.90046 | 40980 ft | 516 kts | 101° |
| 2026-04-26 00:19 | 38.32369 | 121.98979 | 40986 ft | 516 kts | 101° |
| 2026-04-26 00:19 | 38.30844 | 122.07902 | 40985 ft | 516 kts | 101° |
| 2026-04-26 00:20 | 38.29311 | 122.16825 | 40983 ft | 516 kts | 101° |
| 2026-04-26 00:20 | 38.27791 | 122.25738 | 40987 ft | 515 kts | 100° |
| 2026-04-26 00:21 | 38.26467 | 122.34645 | 40996 ft | 515 kts | 99° |
| 2026-04-26 00:21 | 38.24598 | 122.43419 | 40990 ft | 515 kts | 115° |
| 2026-04-26 00:21 | 38.22877 | 122.47396 | 40990 ft | 513 kts | 126° |
| 2026-04-26 00:22 | 38.20656 | 122.50924 | 40983 ft | 511 kts | 133° |
| 2026-04-26 00:22 | 38.15766 | 122.57485 | 40994 ft | 511 kts | 137° |
| 2026-04-26 00:23 | 38.10721 | 122.63847 | 40994 ft | 511 kts | 137° |
| 2026-04-26 00:23 | 38.05698 | 122.70237 | 40993 ft | 510 kts | 137° |
| 2026-04-26 00:24 | 38.00729 | 122.76663 | 40996 ft | 510 kts | 136° |
| 2026-04-26 00:24 | 37.95770 | 122.83098 | 40999 ft | 510 kts | 136° |
| 2026-04-26 00:25 | 37.90807 | 122.89524 | 41002 ft | 510 kts | 136° |
| 2026-04-26 00:25 | 37.85846 | 122.95929 | 40991 ft | 509 kts | 136° |
| 2026-04-26 00:26 | 37.80888 | 123.02312 | 41002 ft | 508 kts | 137° |
| 2026-04-26 00:26 | 37.75962 | 123.08636 | 41007 ft | 508 kts | 137° |
| 2026-04-26 00:27 | 37.71004 | 123.14991 | 40999 ft | 508 kts | 137° |
| 2026-04-26 00:27 | 37.66044 | 123.21338 | 41010 ft | 507 kts | 137° |
| 2026-04-26 00:28 | 37.61089 | 123.27667 | 41017 ft | 507 kts | 137° |
| 2026-04-26 00:28 | 37.56272 | 123.34158 | 41025 ft | 508 kts | 130° |
| 2026-04-26 00:29 | 37.51929 | 123.41188 | 41008 ft | 509 kts | 129° |
| 2026-04-26 00:29 | 37.47679 | 123.48322 | 41017 ft | 509 kts | 128° |
| 2026-04-26 00:30 | 37.43445 | 123.55458 | 41020 ft | 509 kts | 128° |
| 2026-04-26 00:30 | 37.39201 | 123.62579 | 41025 ft | 509 kts | 128° |
| 2026-04-26 00:31 | 37.34943 | 123.69695 | 41023 ft | 509 kts | 129° |
| 2026-04-26 00:31 | 37.30684 | 123.76786 | 41027 ft | 508 kts | 129° |
| 2026-04-26 00:32 | 37.26420 | 123.83864 | 41028 ft | 508 kts | 129° |
| 2026-04-26 00:32 | 37.20138 | 123.94562 | 41034 ft | 509 kts | 122° |
| 2026-04-26 00:33 | 37.17474 | 124.02757 | 41029 ft | 510 kts | 101° |
| 2026-04-26 00:33 | 37.17029 | 124.07153 | 41033 ft | 508 kts | 90° |
| 2026-04-26 00:33 | 37.17013 | 124.11580 | 41034 ft | 508 kts | 87° |
| 2026-04-26 00:34 | 37.17311 | 124.20436 | 40543 ft | 506 kts | 85° |
| 2026-04-26 00:34 | 37.17510 | 124.24828 | 40046 ft | 505 kts | 85° |
| 2026-04-26 00:34 | 37.17684 | 124.29246 | 39379 ft | 509 kts | 86° |
| 2026-04-26 00:35 | 37.17830 | 124.33698 | 38716 ft | 512 kts | 86° |
| 2026-04-26 00:35 | 37.17954 | 124.38173 | 37935 ft | 514 kts | 86° |
| 2026-04-26 00:35 | 37.18065 | 124.42653 | 37246 ft | 514 kts | 86° |
| 2026-04-26 00:35 | 37.18167 | 124.47126 | 36576 ft | 514 kts | 86° |
| 2026-04-26 00:36 | 37.18266 | 124.51606 | 35839 ft | 515 kts | 86° |
| 2026-04-26 00:36 | 37.18365 | 124.56099 | 35062 ft | 517 kts | 86° |
| 2026-04-26 00:36 | 37.18464 | 124.60614 | 34229 ft | 519 kts | 86° |
| 2026-04-26 00:36 | 37.18562 | 124.65143 | 33441 ft | 519 kts | 86° |
| 2026-04-26 00:37 | 37.18661 | 124.69691 | 32328 ft | 524 kts | 86° |
| 2026-04-26 00:37 | 37.18757 | 124.74249 | 31582 ft | 522 kts | 87° |
| 2026-04-26 00:37 | 37.18850 | 124.78719 | 30866 ft | 519 kts | 87° |
| 2026-04-26 00:37 | 37.18942 | 124.83234 | 30064 ft | 518 kts | 87° |
| 2026-04-26 00:38 | 37.19032 | 124.87756 | 29083 ft | 517 kts | 88° |
| 2026-04-26 00:38 | 37.19119 | 124.92251 | 28299 ft | 514 kts | 88° |
| 2026-04-26 00:38 | 37.19205 | 124.96708 | 27581 ft | 508 kts | 88° |
| 2026-04-26 00:38 | 37.19289 | 125.01177 | 26930 ft | 502 kts | 88° |
| 2026-04-26 00:39 | 37.19369 | 125.05522 | 26309 ft | 496 kts | 88° |
| 2026-04-26 00:39 | 37.19447 | 125.09767 | 25572 ft | 493 kts | 88° |
| 2026-04-26 00:39 | 37.19523 | 125.14039 | 24922 ft | 488 kts | 88° |
| 2026-04-26 00:39 | 37.19598 | 125.18330 | 24246 ft | 483 kts | 89° |
| 2026-04-26 00:40 | 37.19669 | 125.22467 | 23590 ft | 479 kts | 89° |
| 2026-04-26 00:40 | 37.19739 | 125.26614 | 22969 ft | 471 kts | 89° |
| 2026-04-26 00:40 | 37.19806 | 125.30688 | 22294 ft | 465 kts | 89° |
| 2026-04-26 00:40 | 37.19871 | 125.34717 | 21580 ft | 460 kts | 89° |
| 2026-04-26 00:41 | 37.19933 | 125.38698 | 20907 ft | 454 kts | 89° |
| 2026-04-26 00:41 | 37.19994 | 125.42636 | 20236 ft | 449 kts | 89° |
| 2026-04-26 00:41 | 37.20032 | 125.46518 | 19584 ft | 443 kts | 91° |
| 2026-04-26 00:41 | 37.19587 | 125.50311 | 18937 ft | 437 kts | 106° |
| 2026-04-26 00:42 | 37.18662 | 125.53892 | 18474 ft | 427 kts | 110° |
| 2026-04-26 00:42 | 37.17667 | 125.57385 | 17706 ft | 423 kts | 110° |
| 2026-04-26 00:42 | 37.16671 | 125.60840 | 16969 ft | 419 kts | 110° |
| 2026-04-26 00:42 | 37.15674 | 125.64311 | 16228 ft | 415 kts | 110° |
| 2026-04-26 00:43 | 37.14719 | 125.67647 | 15540 ft | 411 kts | 110° |
| 2026-04-26 00:43 | 37.13764 | 125.70993 | 14869 ft | 406 kts | 110° |
| 2026-04-26 00:43 | 37.12806 | 125.74348 | 14168 ft | 402 kts | 110° |
| 2026-04-26 00:43 | 37.11883 | 125.77583 | 13483 ft | 397 kts | 110° |
| 2026-04-26 00:44 | 37.11123 | 125.80932 | 12713 ft | 393 kts | 100° |
| 2026-04-26 00:44 | 37.10754 | 125.84248 | 12016 ft | 388 kts | 97° |
| 2026-04-26 00:44 | 37.10464 | 125.87589 | 11357 ft | 383 kts | 96° |
| 2026-04-26 00:44 | 37.10188 | 125.90864 | 11047 ft | 369 kts | 96° |
| 2026-04-26 00:45 | 37.09924 | 125.93965 | 10960 ft | 349 kts | 96° |
| 2026-04-26 00:45 | 37.09669 | 125.96924 | 10862 ft | 332 kts | 96° |
| 2026-04-26 00:45 | 37.09424 | 125.99739 | 10707 ft | 319 kts | 96° |
| 2026-04-26 00:45 | 37.09275 | 126.02455 | 10563 ft | 307 kts | 91° |
| 2026-04-26 00:46 | 37.09275 | 126.05073 | 10433 ft | 295 kts | 89° |
| 2026-04-26 00:46 | 37.09302 | 126.07630 | 10045 ft | 294 kts | 89° |
| 2026-04-26 00:46 | 37.09332 | 126.10187 | 9622 ft | 293 kts | 89° |
| 2026-04-26 00:46 | 37.09360 | 126.12732 | 9247 ft | 291 kts | 90° |
| 2026-04-26 00:47 | 37.09387 | 126.15248 | 8870 ft | 288 kts | 90° |
| 2026-04-26 00:47 | 37.09411 | 126.17745 | 8525 ft | 285 kts | 90° |
| 2026-04-26 00:47 | 37.09435 | 126.20205 | 8300 ft | 278 kts | 90° |
| 2026-04-26 00:47 | 37.09458 | 126.22569 | 8212 ft | 265 kts | 90° |
| 2026-04-26 00:48 | 37.09680 | 126.24808 | 8116 ft | 256 kts | 73° |
| 2026-04-26 00:48 | 37.10461 | 126.26764 | 8016 ft | 247 kts | 58° |
| 2026-04-26 00:48 | 37.11428 | 126.28517 | 7778 ft | 244 kts | 55° |
| 2026-04-26 00:48 | 37.12426 | 126.30243 | 7490 ft | 244 kts | 54° |
| 2026-04-26 00:49 | 37.13423 | 126.31965 | 7228 ft | 243 kts | 55° |
| 2026-04-26 00:49 | 37.14504 | 126.33582 | 6984 ft | 242 kts | 41° |
| 2026-04-26 00:49 | 37.16005 | 126.34500 | 6677 ft | 243 kts | 8° |
| 2026-04-26 00:49 | 37.17652 | 126.34218 | 6426 ft | 240 kts | 334° |
| 2026-04-26 00:50 | 37.19074 | 126.33156 | 6193 ft | 237 kts | 324° |
| 2026-04-26 00:50 | 37.20408 | 126.31956 | 5967 ft | 235 kts | 322° |
| 2026-04-26 00:50 | 37.21728 | 126.30747 | 5740 ft | 234 kts | 322° |
| 2026-04-26 00:50 | 37.23040 | 126.29552 | 5521 ft | 233 kts | 323° |
| 2026-04-26 00:51 | 37.24362 | 126.28386 | 5299 ft | 232 kts | 327° |
| 2026-04-26 00:51 | 37.25859 | 126.27684 | 5063 ft | 232 kts | 353° |
| 2026-04-26 00:51 | 37.27426 | 126.28024 | 4851 ft | 231 kts | 27° |
| 2026-04-26 00:51 | 37.28636 | 126.29326 | 4627 ft | 231 kts | 50° |
| 2026-04-26 00:52 | 37.29595 | 126.30951 | 4387 ft | 232 kts | 54° |
| 2026-04-26 00:52 | 37.30507 | 126.32611 | 4182 ft | 231 kts | 55° |
| 2026-04-26 00:52 | 37.31423 | 126.34274 | 3960 ft | 231 kts | 54° |
| 2026-04-26 00:52 | 37.32340 | 126.35923 | 3743 ft | 230 kts | 53° |
| 2026-04-26 00:53 | 37.33181 | 126.37650 | 3522 ft | 233 kts | 67° |
| 2026-04-26 00:53 | 37.33385 | 126.39645 | 3443 ft | 233 kts | 101° |
| 2026-04-26 00:53 | 37.32661 | 126.41406 | 3349 ft | 228 kts | 137° |
| 2026-04-26 00:53 | 37.31438 | 126.42666 | 3243 ft | 228 kts | 147° |
| 2026-04-26 00:54 | 37.30150 | 126.43782 | 3144 ft | 228 kts | 148° |
| 2026-04-26 00:54 | 37.28841 | 126.44901 | 3037 ft | 228 kts | 148° |
| 2026-04-26 00:54 | 37.27538 | 126.46027 | 2943 ft | 227 kts | 147° |
| 2026-04-26 00:54 | 37.26246 | 126.47157 | 2833 ft | 226 kts | 147° |
| 2026-04-26 00:55 | 37.24959 | 126.48284 | 2732 ft | 226 kts | 147° |
| 2026-04-26 00:55 | 37.23674 | 126.49415 | 2617 ft | 226 kts | 146° |
| 2026-04-26 00:55 | 37.22532 | 126.50765 | 2539 ft | 227 kts | 124° |
| 2026-04-26 00:55 | 37.22056 | 126.52601 | 2428 ft | 223 kts | 89° |
| 2026-04-26 00:56 | 37.22480 | 126.54426 | 2327 ft | 220 kts | 54° |
| 2026-04-26 00:56 | 37.23615 | 126.55639 | 2230 ft | 216 kts | 22° |
| 2026-04-26 00:56 | 37.25054 | 126.56160 | 2151 ft | 216 kts | 8° |
| 2026-04-26 00:56 | 37.26586 | 126.56378 | 1734 ft | 225 kts | 0° |
| 2026-04-26 00:57 | 37.28141 | 126.56284 | 1594 ft | 220 kts | 351° |
| 2026-04-26 00:57 | 37.29602 | 126.55888 | 1593 ft | 213 kts | 342° |
| 2026-04-26 00:57 | 37.30987 | 126.55253 | 1604 ft | 209 kts | 333° |
| 2026-04-26 00:57 | 37.32184 | 126.54355 | 1605 ft | 193 kts | 323° |
| 2026-04-26 00:58 | 37.33229 | 126.53425 | 1602 ft | 176 kts | 323° |
| 2026-04-26 00:58 | 37.34183 | 126.52578 | 1587 ft | 160 kts | 323° |
| 2026-04-26 00:58 | 37.35068 | 126.51802 | 1588 ft | 152 kts | 324° |
| 2026-04-26 00:58 | 37.35931 | 126.51046 | 1595 ft | 151 kts | 324° |
| 2026-04-26 00:59 | 37.36791 | 126.50289 | 1598 ft | 151 kts | 323° |
| 2026-04-26 00:59 | 37.37637 | 126.49540 | 1588 ft | 145 kts | 322° |
| 2026-04-26 00:59 | 37.38448 | 126.48820 | 1443 ft | 139 kts | 322° |
| 2026-04-26 00:59 | 37.39210 | 126.48145 | 1259 ft | 130 kts | 323° |
| 2026-04-26 01:00 | 37.39942 | 126.47495 | 1068 ft | 128 kts | 323° |
| 2026-04-26 01:00 | 37.40672 | 126.46848 | 890 ft | 128 kts | 323° |
| 2026-04-26 01:00 | 37.41400 | 126.46204 | 722 ft | 128 kts | 324° |
| 2026-04-26 01:00 | 37.42131 | 126.45574 | 576 ft | 127 kts | 324° |
| 2026-04-26 01:01 | 37.42849 | 126.44922 | 378 ft | 128 kts | 324° |
| 2026-04-26 01:01 | 37.43568 | 126.44279 | 236 ft | 128 kts | 325° |
| 2026-04-26 01:01 | 37.44280 | 126.43651 | 45 ft | 124 kts | 324° |
| 2026-04-26 01:01 | 37.44865 | 126.43129 | 33 ft | 76 kts | 324° |
| 2026-04-26 01:02 | 37.45152 | 126.42872 | 35 ft | 37 kts | 324° |
| 2026-04-26 01:02 | 37.45362 | 126.42698 | 35 ft | 35 kts | 335° |
| 2026-04-26 01:02 | 37.45553 | 126.42658 | 36 ft | 19 kts | 37° |
| 2026-04-26 01:02 | 37.45603 | 126.42748 | 36 ft | 0 kts | 55° |
| 2026-04-26 01:04 | 37.45613 | 126.42765 | 36 ft | 7 kts | 54° |
| 2026-04-26 01:04 | 37.45647 | 126.42823 | 36 ft | 9 kts | 54° |
| 2026-04-26 01:04 | 37.45694 | 126.42906 | 38 ft | 14 kts | 54° |
| 2026-04-26 01:04 | 37.45760 | 126.43025 | 37 ft | 19 kts | 55° |
| 2026-04-26 01:05 | 37.45826 | 126.43100 | 37 ft | 19 kts | 14° |
| 2026-04-26 01:05 | 37.45917 | 126.43188 | 36 ft | 17 kts | 54° |
| 2026-04-26 01:05 | 37.46003 | 126.43283 | 36 ft | 15 kts | 2° |
| 2026-04-26 01:05 | 37.46095 | 126.43217 | 36 ft | 16 kts | 324° |
| 2026-04-26 01:06 | 37.46161 | 126.43185 | 36 ft | 5 kts | 359° |
| 2026-04-26 01:06 | 37.46163 | 126.43184 | 36 ft | 0 kts | 353° |
| 2026-04-26 01:06 | 37.46164 | 126.43183 | 36 ft | 1 kts | 349° |
| 2026-04-26 01:06 | 37.46197 | 126.43180 | 36 ft | 6 kts | 4° |
| 2026-04-26 01:07 | 37.46227 | 126.43205 | 36 ft | 5 kts | 51° |
| 2026-04-26 01:07 | 37.46238 | 126.43226 | 36 ft | 2 kts | 60° |
| 2026-04-26 01:07 | 37.46246 | 126.43248 | 36 ft | 2 kts | 65° |
| 2026-04-26 01:07 | 37.46247 | 126.43252 | 36 ft | 0 kts | 65° |